Baugh, Oklahoma
Current Conditions -  °F | °C
As of 3:55 PM on Wednesday 28 Jan 2015 (Local Time) from KOWP Reporting Station
Clear Clear  
Wind Chill: 80°   Ceiling: Unl
Heat Index: 80°   Visibility: 10mi
Dew Point: 36°   Wind: 15mph
Humidity: 21%   Direction: 190°S
Pressure: 29.84"   Gusts: 23mph
Location:  36.248°N, 96.4789°W
Report Text: KOWP 282155Z AUTO 19013G20KT 160V220 10SM CLR 27/02 A2984 RMK AO2 T02650023
Loading
Personal Weather Stations






























Interactive Weather Map New forecast layout! Learn more

10-Day Weather Forecast

Advertisements
Track Severe Weather on mobile